Time;durP1;ratioP1;P1;durP2;ratioP2;P2;SDS_P1;SDS_P2;PMS_P1;PMS_P2;Temp;Humidity;BMP_temperature;BMP_pressure;BME280_temperature;BME280_humidity;BME280_pressure;Samples;Min_cycle;Max_cycle;Signal;HPM_P1;HPM_P2
2023/06/18 00:02:01;;;;;;;3.95;1.67;;;11.90;99.90;;;;;;5036420;28;20463;-89
2023/06/18 00:04:31;;;;;;;0.65;0.40;;;11.80;99.90;;;;;;5052823;28;20045;-90
2023/06/18 00:06:59;;;;;;;1.27;0.65;;;11.60;99.90;;;;;;5036767;28;20101;-90
2023/06/18 00:09:25;;;;;;;0.80;0.73;;;12.90;99.90;;;;;;5053200;28;20499;-90
2023/06/18 00:11:51;;;;;;;2.38;0.98;;;12.30;99.90;;;;;;5036722;28;20058;-90
2023/06/18 00:14:21;;;;;;;2.75;2.42;;;12.20;99.90;;;;;;5070482;28;20072;-89
2023/06/18 00:16:48;;;;;;;3.17;1.70;;;12.50;99.90;;;;;;5020284;28;20049;-90
2023/06/18 00:19:18;;;;;;;5.00;1.83;;;12.60;99.90;;;;;;5035749;28;20053;-90
2023/06/18 00:21:47;;;;;;;4.43;1.85;;;13.40;99.90;;;;;;5020281;28;20409;-90
2023/06/18 00:24:16;;;;;;;0.68;0.68;;;12.50;99.90;;;;;;5053519;28;20488;-90
2023/06/18 00:26:42;;;;;;;1.30;1.20;;;12.40;99.90;;;;;;5036680;28;20068;-91
2023/06/18 00:29:08;;;;;;;4.35;1.85;;;11.20;99.90;;;;;;5052959;28;20069;-90
2023/06/18 00:31:34;;;;;;;1.85;1.58;;;12.40;99.90;;;;;;5053537;28;20053;-91
2023/06/18 00:34:06;;;;;;;1.77;1.17;;;12.30;99.90;;;;;;5036932;28;20488;-90
2023/06/18 00:36:38;;;;;;;1.10;0.85;;;12.30;99.90;;;;;;5070237;28;20045;-90
2023/06/18 00:39:05;;;;;;;2.83;2.50;;;12.30;99.90;;;;;;5036530;28;20519;-90
2023/06/18 00:41:31;;;;;;;4.60;1.65;;;12.60;99.90;;;;;;5053647;28;20064;-90
2023/06/18 00:43:58;;;;;;;0.60;0.52;;;12.20;99.90;;;;;;5052896;28;20049;-89
2023/06/18 00:46:30;;;;;;;1.17;0.95;;;12.10;99.90;;;;;;5037532;28;20087;-90
2023/06/18 00:48:57;;;;;;;1.25;0.73;;;13.40;99.90;;;;;;5036863;28;20056;-89
2023/06/18 00:51:26;;;;;;;1.00;0.85;;;12.10;99.90;;;;;;5035606;28;20106;-89
2023/06/18 00:53:53;;;;;;;0.85;0.65;;;12.40;99.90;;;;;;5052376;28;20057;-90
2023/06/18 00:56:22;;;;;;;0.90;0.68;;;10.90;99.90;;;;;;5037178;28;20046;-89
2023/06/18 00:58:47;;;;;;;2.08;1.63;;;12.70;99.90;;;;;;5036273;28;20064;-89
2023/06/18 01:01:16;;;;;;;1.00;0.82;;;13.50;99.90;;;;;;5052184;28;20050;-90
2023/06/18 01:03:47;;;;;;;1.25;1.15;;;12.00;99.90;;;;;;5036051;28;20488;-90
2023/06/18 01:06:20;;;;;;;3.63;2.17;;;13.20;99.90;;;;;;5052842;28;20049;-90
2023/06/18 01:08:48;;;;;;;2.40;1.88;;;11.50;99.90;;;;;;5052655;28;20076;-90
2023/06/18 01:11:21;;;;;;;1.83;1.65;;;13.20;99.90;;;;;;5019822;28;20054;-90
2023/06/18 01:13:52;;;;;;;1.67;1.15;;;11.80;99.90;;;;;;5036168;28;20041;-90
2023/06/18 01:16:24;;;;;;;2.40;1.75;;;12.00;99.90;;;;;;5037037;28;20049;-90
2023/06/18 01:18:51;;;;;;;4.75;0.98;;;12.10;99.90;;;;;;5052948;28;20447;-90
2023/06/18 01:21:21;;;;;;;3.47;2.33;;;13.00;99.90;;;;;;5052023;28;20041;-90
2023/06/18 01:24:11;;;;;;;3.13;2.75;;;11.40;99.90;;;;;;5019285;28;20119;-90
2023/06/18 01:26:44;;;;;;;4.82;1.83;;;12.90;99.90;;;;;;5032110;28;20085;-90
2023/06/18 01:29:14;;;;;;;1.35;0.57;;;12.00;99.90;;;;;;5070787;28;20045;-90
2023/06/18 01:31:44;;;;;;;1.70;0.68;;;11.90;99.90;;;;;;5021573;28;20093;-90
2023/06/18 01:34:12;;;;;;;2.97;1.55;;;11.80;99.90;;;;;;5052706;28;20133;-90
2023/06/18 01:36:56;;;;;;;1.05;1.00;;;11.90;99.90;;;;;;5035321;28;20048;-90
2023/06/18 01:39:39;;;;;;;3.22;2.10;;;12.00;99.90;;;;;;5052634;28;20071;-90
2023/06/18 01:42:18;;;;;;;2.40;1.98;;;12.00;99.90;;;;;;5035770;28;20037;-90
2023/06/18 01:44:49;;;;;;;1.60;1.33;;;12.20;99.90;;;;;;5037189;28;20056;-89
2023/06/18 01:47:18;;;;;;;0.43;0.43;;;11.80;99.90;;;;;;5036197;28;20388;-90
2023/06/18 01:49:49;;;;;;;1.05;0.95;;;11.80;99.90;;;;;;5018981;28;20100;-90
2023/06/18 01:52:20;;;;;;;3.90;1.27;;;11.70;99.90;;;;;;5034300;28;20061;-90
2023/06/18 01:54:50;;;;;;;1.52;1.42;;;12.50;99.90;;;;;;5019815;28;20048;-90
2023/06/18 01:57:16;;;;;;;2.40;0.98;;;10.60;99.90;;;;;;5035434;28;20124;-90
2023/06/18 01:59:43;;;;;;;2.33;2.13;;;13.20;99.90;;;;;;5033587;28;20060;-89
2023/06/18 02:02:10;;;;;;;9.30;3.13;;;11.20;99.90;;;;;;5034574;28;20038;-90
2023/06/18 02:04:36;;;;;;;3.80;2.10;;;12.40;99.90;;;;;;5034581;28;20101;-90
2023/06/18 02:07:02;;;;;;;1.23;1.10;;;13.20;99.90;;;;;;5050563;28;20041;-90
2023/06/18 02:09:30;;;;;;;2.63;1.40;;;11.50;99.90;;;;;;5050370;28;20098;-90
2023/06/18 02:11:55;;;;;;;1.75;0.82;;;10.70;99.90;;;;;;5036624;28;20107;-90
2023/06/18 02:14:21;;;;;;;2.97;1.98;;;12.30;99.90;;;;;;5055348;28;20054;-90
2023/06/18 02:16:49;;;;;;;2.60;1.33;;;12.50;99.90;;;;;;5038991;28;20060;-90
2023/06/18 02:19:15;;;;;;;3.47;1.25;;;11.60;99.90;;;;;;5039140;28;20053;-90
2023/06/18 02:21:41;;;;;;;2.70;2.00;;;11.60;99.90;;;;;;5022212;28;20053;-90
2023/06/18 02:24:07;;;;;;;1.80;1.25;;;12.00;99.90;;;;;;5039134;28;20055;-89
2023/06/18 02:26:33;;;;;;;2.60;1.45;;;11.50;99.90;;;;;;5072342;28;20108;-89
2023/06/18 02:28:59;;;;;;;0.85;0.82;;;11.20;99.90;;;;;;5039031;28;20583;-89
2023/06/18 02:31:24;;;;;;;3.38;2.13;;;10.80;99.90;;;;;;5038772;28;20132;-90
2023/06/18 02:33:50;;;;;;;2.20;1.30;;;12.50;99.90;;;;;;5040147;28;20088;-90
2023/06/18 02:36:17;;;;;;;1.40;1.30;;;11.50;99.90;;;;;;5055842;28;20101;-89
2023/06/18 02:38:43;;;;;;;7.35;2.72;;;12.70;99.90;;;;;;5038905;28;20534;-90
2023/06/18 02:41:09;;;;;;;3.83;1.30;;;12.30;99.90;;;;;;5055288;28;20042;-89
2023/06/18 02:43:36;;;;;;;1.15;1.08;;;12.40;99.90;;;;;;5039946;28;20091;-90
2023/06/18 02:46:03;;;;;;;1.15;0.98;;;12.00;99.90;;;;;;5038653;28;20042;-90
2023/06/18 02:48:28;;;;;;;0.45;0.45;;;10.50;99.90;;;;;;5021422;28;20037;-90
2023/06/18 02:50:55;;;;;;;2.72;2.28;;;11.90;99.90;;;;;;5038532;28;20068;-90
2023/06/18 02:53:21;;;;;;;4.93;1.95;;;11.10;99.90;;;;;;5038700;28;20049;-90
2023/06/18 02:55:46;;;;;;;1.15;0.73;;;11.00;99.90;;;;;;5055591;28;20140;-90
2023/06/18 02:58:28;;;;;;;1.88;1.63;;;11.40;99.90;;;;;;5038435;28;20069;-90
2023/06/18 03:00:55;;;;;;;5.53;2.13;;;12.30;99.90;;;;;;5055447;28;20055;-90
2023/06/18 03:03:24;;;;;;;0.95;0.85;;;11.70;99.90;;;;;;5038780;28;20507;-90
2023/06/18 03:05:51;;;;;;;1.35;1.08;;;10.10;99.90;;;;;;5071275;28;20084;-90
2023/06/18 03:08:18;;;;;;;0.30;0.30;;;11.30;99.90;;;;;;5053145;28;20053;-90
2023/06/18 03:10:44;;;;;;;0.52;0.52;;;11.00;99.90;;;;;;5036622;28;20127;-90
2023/06/18 03:13:10;;;;;;;0.30;0.30;;;11.10;99.90;;;;;;5036565;28;20042;-90
2023/06/18 03:15:36;;;;;;;1.27;1.17;;;11.10;99.90;;;;;;5071005;28;20045;-89
2023/06/18 03:18:02;;;;;;;1.85;1.13;;;11.30;99.90;;;;;;5054002;28;20136;-90
2023/06/18 03:20:28;;;;;;;0.40;0.35;;;11.20;99.90;;;;;;5037724;28;20044;-90
2023/06/18 03:22:55;;;;;;;0.60;0.32;;;11.20;99.90;;;;;;5036618;28;20042;-91
2023/06/18 03:25:20;;;;;;;1.30;0.35;;;11.30;99.90;;;;;;5037466;28;20473;-90
2023/06/18 03:27:50;;;;;;;0.80;0.25;;;11.40;99.90;;;;;;5070885;28;20128;-90
2023/06/18 03:30:17;;;;;;;0.32;0.22;;;12.00;99.90;;;;;;5037720;28;20041;-90
2023/06/18 03:32:43;;;;;;;2.67;0.60;;;11.40;99.90;;;;;;5053840;28;20048;-91
2023/06/18 03:35:09;;;;;;;0.90;0.85;;;11.30;99.90;;;;;;5037386;28;20052;-90
2023/06/18 03:37:38;;;;;;;1.27;0.55;;;11.40;99.90;;;;;;5054640;28;20077;-91
2023/06/18 03:40:05;;;;;;;1.63;0.95;;;10.50;99.90;;;;;;5038124;28;20503;-91
2023/06/18 03:42:30;;;;;;;0.75;0.65;;;11.50;99.90;;;;;;5037964;28;20041;-91
2023/06/18 03:44:56;;;;;;;0.40;0.40;;;11.60;99.90;;;;;;5054849;28;20059;-91
2023/06/18 03:47:22;;;;;;;0.30;0.28;;;12.80;99.90;;;;;;5021612;28;20896;-91
2023/06/18 03:49:51;;;;;;;3.53;0.65;;;12.00;99.90;;;;;;5037776;28;20054;-91
2023/06/18 03:52:16;;;;;;;0.75;0.70;;;13.10;99.90;;;;;;5037086;28;20079;-91
2023/06/18 03:54:42;;;;;;;1.17;0.55;;;13.10;99.90;;;;;;5020984;28;20045;-90
2023/06/18 03:57:08;;;;;;;0.60;0.55;;;11.10;99.90;;;;;;5053934;28;20052;-90
2023/06/18 03:59:34;;;;;;;0.10;0.10;;;11.70;99.90;;;;;;5054055;28;20076;-90
2023/06/18 04:02:00;;;;;;;1.00;0.90;;;11.50;99.90;;;;;;5054257;28;20047;-90
2023/06/18 04:04:26;;;;;;;2.92;1.15;;;11.70;99.90;;;;;;5037681;28;20554;-88
2023/06/18 04:06:51;;;;;;;0.47;0.45;;;11.60;99.90;;;;;;5070475;28;20056;-87
2023/06/18 04:09:17;;;;;;;1.98;1.42;;;12.70;99.90;;;;;;5037499;28;20057;-87
2023/06/18 04:11:45;;;;;;;1.85;1.02;;;12.80;99.90;;;;;;5053487;28;20049;-90
2023/06/18 04:14:13;;;;;;;2.85;1.90;;;13.20;99.90;;;;;;5036815;28;20168;-90
2023/06/18 04:16:39;;;;;;;2.95;1.23;;;14.20;99.90;;;;;;5036687;28;20045;-89
2023/06/18 04:19:05;;;;;;;4.78;1.40;;;13.10;99.90;;;;;;5052660;28;20048;-90
2023/06/18 04:21:31;;;;;;;0.75;0.75;;;13.10;99.90;;;;;;5036666;28;20061;-89
2023/06/18 04:23:57;;;;;;;2.88;2.15;;;14.30;99.90;;;;;;5038083;28;20424;-90
2023/06/18 04:26:23;;;;;;;2.00;1.75;;;13.60;99.90;;;;;;5069844;28;20128;-90
2023/06/18 04:28:50;;;;;;;1.52;1.42;;;13.20;99.90;;;;;;5037776;28;20095;-90
2023/06/18 04:31:16;;;;;;;1.13;1.10;;;13.90;99.90;;;;;;5038038;28;20052;-90
2023/06/18 04:33:42;;;;;;;4.28;2.35;;;13.00;99.90;;;;;;5036904;28;20037;-91
2023/06/18 04:36:09;;;;;;;0.82;0.73;;;14.80;99.90;;;;;;5052858;28;20148;-91
2023/06/18 04:38:36;;;;;;;1.15;1.08;;;14.10;99.90;;;;;;5036376;28;20049;-91
2023/06/18 04:41:01;;;;;;;1.13;1.02;;;13.40;99.90;;;;;;5019334;28;20056;-91
2023/06/18 04:43:27;;;;;;;2.55;2.17;;;13.50;99.90;;;;;;5036923;28;20037;-90
2023/06/18 04:45:54;;;;;;;2.55;1.95;;;13.50;99.90;;;;;;5052307;28;20041;-90
2023/06/18 04:48:20;;;;;;;1.60;1.35;;;13.60;99.90;;;;;;5035612;28;20045;-91
2023/06/18 04:50:46;;;;;;;0.77;0.65;;;13.70;99.90;;;;;;5052748;28;20060;-90
2023/06/18 04:53:12;;;;;;;2.47;1.33;;;13.80;99.90;;;;;;5052230;28;20037;-90
2023/06/18 04:55:38;;;;;;;1.83;1.58;;;15.00;99.90;;;;;;5069114;28;20040;-90
2023/06/18 04:58:06;;;;;;;2.63;0.60;;;14.20;99.90;;;;;;5052473;28;20049;-90
2023/06/18 05:00:36;;;;;;;4.95;2.13;;;14.10;99.90;;;;;;5052173;28;20142;-90
2023/06/18 05:03:03;;;;;;;2.58;1.52;;;14.00;99.90;;;;;;5034784;28;20053;-90
2023/06/18 05:05:29;;;;;;;3.25;1.88;;;14.00;99.90;;;;;;5034977;28;20041;-90
2023/06/18 05:07:55;;;;;;;5.82;2.13;;;14.30;99.90;;;;;;5051334;28;20875;-90
2023/06/18 05:10:22;;;;;;;3.20;2.58;;;13.90;99.90;;;;;;5052292;28;20144;-90
2023/06/18 05:12:48;;;;;;;2.17;1.48;;;14.00;99.90;;;;;;5019238;28;20176;-90
2023/06/18 05:15:13;;;;;;;1.98;1.05;;;14.00;99.90;;;;;;5036764;28;20048;-90
2023/06/18 05:17:39;;;;;;;1.23;1.05;;;14.10;99.90;;;;;;5069429;28;20049;-90
2023/06/18 05:20:06;;;;;;;0.85;0.60;;;14.20;99.90;;;;;;5052990;28;20041;-90
2023/06/18 05:22:33;;;;;;;1.75;1.35;;;14.40;99.90;;;;;;5052553;28;20045;-90
2023/06/18 05:25:04;;;;;;;3.92;2.53;;;14.30;99.90;;;;;;5054014;28;20041;-90
2023/06/18 05:27:30;;;;;;;2.40;2.05;;;15.40;99.90;;;;;;5037988;28;20105;-90
2023/06/18 05:29:56;;;;;;;2.10;1.60;;;15.80;99.90;;;;;;5075050;28;20029;-91
2023/06/18 05:32:22;;;;;;;2.60;1.95;;;14.70;99.90;;;;;;5053968;28;20099;-91
2023/06/18 05:34:48;;;;;;;1.83;0.90;;;14.80;99.90;;;;;;5053364;28;20029;-90
2023/06/18 05:37:13;;;;;;;1.70;1.60;;;14.90;99.90;;;;;;5085684;28;20029;-90
2023/06/18 05:39:39;;;;;;;4.03;2.13;;;15.20;99.90;;;;;;5053907;28;20052;-89
2023/06/18 05:42:06;;;;;;;1.17;1.00;;;15.40;99.90;;;;;;5043137;28;20132;-88
2023/06/18 05:44:31;;;;;;;1.17;1.08;;;15.50;99.90;;;;;;5053792;28;20033;-90
2023/06/18 05:46:57;;;;;;;2.38;1.30;;;16.90;99.90;;;;;;5070733;28;20018;-91
2023/06/18 05:49:23;;;;;;;1.27;1.10;;;16.30;99.90;;;;;;5038747;28;20045;-91
2023/06/18 05:51:48;;;;;;;2.28;1.42;;;16.50;99.90;;;;;;5034453;28;20480;-88
2023/06/18 05:54:14;;;;;;;2.10;1.65;;;18.10;99.90;;;;;;5031642;28;20579;-88
2023/06/18 05:56:40;;;;;;;3.00;1.95;;;17.40;99.90;;;;;;5012433;28;20053;-88
2023/06/18 05:59:05;;;;;;;4.40;2.40;;;17.80;99.90;;;;;;5029875;28;20052;-88
2023/06/18 06:01:33;;;;;;;2.38;2.17;;;17.60;99.90;;;;;;5030658;28;20053;-88
2023/06/18 06:03:59;;;;;;;4.07;1.13;;;17.70;99.90;;;;;;5031472;28;20057;-87
2023/06/18 06:06:25;;;;;;;2.22;1.88;;;18.90;99.90;;;;;;5030589;28;20052;-87
2023/06/18 06:08:52;;;;;;;1.90;1.15;;;19.00;99.90;;;;;;5059506;28;20065;-88
2023/06/18 06:11:18;;;;;;;2.25;1.77;;;19.10;99.90;;;;;;5027799;28;20077;-88
2023/06/18 06:13:44;;;;;;;3.80;2.25;;;19.30;99.90;;;;;;5027789;28;20041;-89
2023/06/18 06:16:09;;;;;;;0.52;0.52;;;19.60;1.00;;;;;;5027525;28;20068;-88
2023/06/18 06:18:35;;;;;;;2.65;2.08;;;19.70;99.90;;;;;;5042817;28;20051;-89
2023/06/18 06:21:01;;;;;;;1.88;1.50;;;20.30;38.00;;;;;;5027615;28;20057;-88
2023/06/18 06:23:26;;;;;;;0.55;0.55;;;21.30;99.90;;;;;;5026226;28;20053;-89
2023/06/18 06:25:52;;;;;;;0.93;0.70;;;20.30;99.90;;;;;;5027871;28;20091;-89
2023/06/18 06:28:18;;;;;;;1.25;1.08;;;21.20;99.90;;;;;;5059453;28;20459;-89
2023/06/18 06:30:44;;;;;;;3.38;2.08;;;21.60;99.90;;;;;;5026238;28;20081;-89
2023/06/18 06:33:09;;;;;;;0.30;0.30;;;22.50;61.90;;;;;;5009356;28;20507;-88
2023/06/18 06:35:36;;;;;;;3.40;1.70;;;23.70;99.90;;;;;;5059182;28;20100;-89
2023/06/18 06:38:02;;;;;;;8.45;2.75;;;22.40;99.90;;;;;;5027921;28;20057;-89
2023/06/18 06:40:28;;;;;;;1.30;0.77;;;22.40;1.00;;;;;;5027545;28;20059;-89
2023/06/18 06:42:53;;;;;;;1.95;1.13;;;22.30;1.00;;;;;;5009642;28;20041;-88
2023/06/18 06:45:19;;;;;;;0.57;0.47;;;22.70;1.00;;;;;;5027204;28;20487;-88
2023/06/18 06:48:04;;;;;;;2.25;1.45;;;23.00;1.00;;;;;;5025399;28;20508;-89
2023/06/18 06:50:29;;;;;;;1.05;0.95;;;22.60;99.90;;;;;;5026855;28;20419;-89
2023/06/18 06:52:55;;;;;;;2.35;1.35;;;22.60;99.90;;;;;;5025581;28;20052;-89
2023/06/18 06:55:21;;;;;;;2.72;1.88;;;22.90;1.00;;;;;;5026748;28;20507;-89
2023/06/18 06:57:46;;;;;;;2.42;1.92;;;22.90;99.90;;;;;;5059703;28;20042;-89
2023/06/18 07:00:13;;;;;;;3.13;1.58;;;22.60;99.90;;;;;;5030216;28;20454;-89
2023/06/18 07:02:38;;;;;;;2.72;1.42;;;22.30;99.90;;;;;;5030598;28;20489;-88
2023/06/18 07:05:06;;;;;;;1.77;1.35;;;23.20;99.90;;;;;;5029247;28;20132;-88
2023/06/18 07:07:32;;;;;;;2.92;1.80;;;23.20;92.60;;;;;;5061979;28;20062;-88
2023/06/18 07:09:57;;;;;;;1.55;0.93;;;23.60;70.90;;;;;;5045165;28;20115;-89
2023/06/18 07:12:23;;;;;;;4.45;1.50;;;24.00;99.90;;;;;;5028823;28;20070;-83
2023/06/18 07:14:49;;;;;;;1.45;1.13;;;24.10;1.00;;;;;;5027320;28;20049;-83
2023/06/18 07:17:14;;;;;;;1.40;1.13;;;25.20;31.10;;;;;;5028154;28;20488;-82
2023/06/18 07:19:40;;;;;;;2.05;1.27;;;26.20;1.00;;;;;;5027935;28;20060;-83
2023/06/18 07:22:06;;;;;;;2.35;1.42;;;27.20;99.90;;;;;;5029472;28;20038;-82
2023/06/18 07:24:31;;;;;;;1.27;0.98;;;27.60;99.90;;;;;;5030672;28;20124;-83
2023/06/18 07:26:57;;;;;;;3.83;2.40;;;27.10;99.90;;;;;;5027365;28;20049;-83
2023/06/18 07:29:22;;;;;;;1.27;0.77;;;25.90;99.90;;;;;;5027218;28;20483;-83
2023/06/18 07:31:48;;;;;;;4.55;1.42;;;25.10;99.90;;;;;;5027468;28;20052;-84
2023/06/18 07:34:16;;;;;;;1.90;1.35;;;24.80;99.90;;;;;;5027541;28;20459;-83
2023/06/18 07:36:42;;;;;;;1.13;0.82;;;24.60;99.90;;;;;;5027449;28;20148;-84
2023/06/18 07:39:08;;;;;;;8.43;1.30;;;24.90;1.00;;;;;;5027513;28;20488;-84
2023/06/18 07:41:34;;;;;;;1.05;0.75;;;25.60;99.90;;;;;;5026056;28;20064;-84
2023/06/18 07:44:00;;;;;;;1.52;1.02;;;26.70;99.90;;;;;;5027217;28;20060;-84
2023/06/18 07:46:26;;;;;;;2.25;2.03;;;27.10;99.90;;;;;;5027113;28;20049;-84
2023/06/18 07:48:52;;;;;;;1.83;1.35;;;26.70;99.90;;;;;;5027035;28;20045;-84
2023/06/18 07:51:17;;;;;;;2.50;1.95;;;26.80;99.90;;;;;;5026967;28;20136;-83
2023/06/18 07:53:43;;;;;;;7.38;3.92;;;26.30;99.90;;;;;;5026568;28;20432;-84
2023/06/18 07:56:09;;;;;;;2.47;1.92;;;26.00;99.90;;;;;;5026342;28;20121;-84
2023/06/18 07:58:38;;;;;;;7.30;2.10;;;26.50;99.90;;;;;;5026578;28;20473;-83
2023/06/18 08:01:03;;;;;;;1.33;1.10;;;26.90;99.90;;;;;;5026618;28;20127;-83
2023/06/18 08:03:29;;;;;;;1.33;1.13;;;27.30;99.90;;;;;;5026483;28;20610;-83
2023/06/18 08:05:55;;;;;;;3.90;1.85;;;28.10;99.90;;;;;;5026976;28;20484;-83
2023/06/18 08:08:21;;;;;;;2.83;1.20;;;27.30;99.90;;;;;;5026468;28;20053;-83
2023/06/18 08:10:46;;;;;;;3.17;1.77;;;28.00;99.90;;;;;;5026917;28;20064;-83
2023/06/18 08:13:12;;;;;;;1.10;0.90;;;28.80;99.90;;;;;;5027443;28;20504;-82
2023/06/18 08:15:38;;;;;;;6.53;1.42;;;28.60;99.90;;;;;;5025492;28;20107;-83
2023/06/18 08:18:03;;;;;;;0.63;0.63;;;28.80;99.90;;;;;;5026479;28;20053;-83
2023/06/18 08:20:29;;;;;;;1.83;1.58;;;29.30;99.90;;;;;;5059195;28;20178;-84
2023/06/18 08:22:55;;;;;;;2.03;1.50;;;29.90;99.90;;;;;;5026505;28;20053;-84
2023/06/18 08:25:20;;;;;;;1.48;0.77;;;28.80;99.90;;;;;;5026359;28;20041;-84
2023/06/18 08:27:46;;;;;;;0.90;0.77;;;29.90;99.90;;;;;;5025880;28;20065;-83
2023/06/18 08:30:12;;;;;;;3.33;1.48;;;30.20;99.90;;;;;;5026083;28;20046;-83
2023/06/18 08:32:38;;;;;;;1.30;0.47;;;31.10;99.90;;;;;;5026285;28;20046;-83
2023/06/18 08:35:05;;;;;;;2.70;1.45;;;32.20;99.90;;;;;;5025729;28;20053;-83
2023/06/18 08:37:31;;;;;;;1.65;1.23;;;30.60;99.90;;;;;;5026506;28;20749;-83
2023/06/18 08:39:57;;;;;;;2.70;0.80;;;30.00;95.90;;;;;;5026004;28;20080;-83
2023/06/18 08:42:23;;;;;;;0.35;0.35;;;30.50;99.90;;;;;;5025848;28;20408;-84
2023/06/18 08:44:50;;;;;;;2.35;0.85;;;29.90;91.60;;;;;;5025638;28;20045;-83
2023/06/18 08:47:16;;;;;;;2.13;1.65;;;30.90;99.90;;;;;;5025652;28;20045;-83
2023/06/18 08:49:44;;;;;;;1.52;1.23;;;31.40;99.90;;;;;;5025524;28;20053;-83
2023/06/18 08:52:10;;;;;;;1.92;1.20;;;31.40;99.90;;;;;;5025272;28;20045;-83
2023/06/18 08:54:39;;;;;;;2.67;1.25;;;32.30;99.90;;;;;;5025204;28;20057;-83
2023/06/18 08:57:26;;;;;;;2.53;1.60;;;31.00;71.20;;;;;;5025468;28;20049;-83
2023/06/18 08:59:54;;;;;;;0.60;0.60;;;31.20;70.60;;;;;;5025468;28;20060;-83
2023/06/18 09:02:21;;;;;;;4.00;1.50;;;32.50;99.70;;;;;;5025224;28;20052;-83
2023/06/18 09:04:47;;;;;;;3.33;1.05;;;33.20;70.60;;;;;;5025373;28;20051;-84
2023/06/18 09:07:13;;;;;;;1.58;1.02;;;33.00;20.30;;;;;;5025347;28;20049;-84
2023/06/18 09:09:38;;;;;;;2.08;1.02;;;33.50;24.90;;;;;;5024673;28;20057;-84
2023/06/18 09:12:05;;;;;;;1.05;0.65;;;34.00;39.90;;;;;;5024887;28;20085;-84
2023/06/18 09:14:31;;;;;;;2.08;1.10;;;33.50;1.00;;;;;;5025314;28;20080;-84
2023/06/18 09:16:57;;;;;;;0.60;0.50;;;32.70;1.00;;;;;;5024963;28;20045;-85
2023/06/18 09:19:24;;;;;;;1.73;1.05;;;33.50;1.00;;;;;;5025507;28;20049;-85
2023/06/18 09:21:50;;;;;;;0.65;0.52;;;33.70;1.00;;;;;;5024772;28;20046;-85
2023/06/18 09:24:21;;;;;;;1.33;0.85;;;33.80;1.00;;;;;;5027733;28;20553;-90
2023/06/18 09:26:58;;;;;;;1.98;1.02;;;33.90;1.00;;;;;;5027012;28;20514;-87
2023/06/18 09:29:28;;;;;;;3.95;1.70;;;33.60;1.00;;;;;;5028058;28;20053;-87
2023/06/18 09:31:54;;;;;;;0.75;0.68;;;32.80;1.00;;;;;;5029165;28;20049;-88
2023/06/18 09:34:20;;;;;;;1.35;0.77;;;34.00;1.00;;;;;;5026737;28;20049;-88
2023/06/18 09:36:48;;;;;;;0.77;0.75;;;32.10;99.90;;;;;;5026921;28;20582;-88
2023/06/18 09:39:21;;;;;;;1.95;0.73;;;32.30;99.90;;;;;;5026928;28;20053;-90
2023/06/18 09:41:49;;;;;;;0.70;0.60;;;32.40;99.90;;;;;;5026477;28;20053;-90
2023/06/18 09:44:16;;;;;;;3.08;1.02;;;32.90;99.90;;;;;;5027847;28;20073;-90
2023/06/18 09:46:44;;;;;;;0.85;0.73;;;33.30;99.90;;;;;;5028058;28;20124;-90
2023/06/18 09:49:12;;;;;;;2.97;1.17;;;33.40;99.90;;;;;;5026530;28;20103;-90
2023/06/18 09:51:41;;;;;;;0.85;0.50;;;33.20;99.90;;;;;;5028018;28;20111;-90
2023/06/18 09:54:07;;;;;;;1.83;1.05;;;34.00;99.90;;;;;;5027629;28;20045;-90
2023/06/18 09:56:32;;;;;;;0.80;0.80;;;33.40;99.90;;;;;;5026164;28;20041;-88
2023/06/18 09:58:59;;;;;;;2.28;0.70;;;32.50;99.90;;;;;;5027727;28;20049;-90
2023/06/18 10:01:29;;;;;;;4.63;1.10;;;32.40;99.90;;;;;;5025788;28;20131;-88
2023/06/18 10:03:55;;;;;;;1.23;1.00;;;32.80;99.90;;;;;;5008711;28;20049;-87
2023/06/18 10:06:24;;;;;;;3.25;1.30;;;32.00;99.90;;;;;;5026462;28;20099;-89
2023/06/18 10:08:52;;;;;;;0.30;0.30;;;31.80;99.90;;;;;;5026755;28;20049;-88
2023/06/18 10:11:20;;;;;;;1.10;0.98;;;31.60;99.90;;;;;;5027140;28;20041;-88
2023/06/18 10:13:53;;;;;;;0.63;0.50;;;31.00;99.90;;;;;;5026895;28;20053;-89
2023/06/18 10:16:20;;;;;;;0.40;0.28;;;31.10;99.90;;;;;;5026800;28;20472;-88
2023/06/18 10:19:03;;;;;;;0.88;0.50;;;30.80;99.90;;;;;;5025507;28;20542;-88
2023/06/18 10:21:31;;;;;;;0.52;0.52;;;31.40;99.90;;;;;;5027847;28;20053;-88
2023/06/18 10:24:07;;;;;;;3.70;0.98;;;31.70;99.90;;;;;;5027276;28;20204;-88
2023/06/18 10:26:36;;;;;;;1.15;0.93;;;32.10;99.90;;;;;;5015501;28;20057;-88
2023/06/18 10:29:03;;;;;;;2.85;1.33;;;31.70;99.90;;;;;;5030752;28;20052;-88
2023/06/18 10:31:31;;;;;;;1.65;0.95;;;31.80;99.90;;;;;;5024173;28;20141;-88
2023/06/18 10:34:00;;;;;;;0.68;0.65;;;32.60;99.90;;;;;;5029543;28;20060;-88
2023/06/18 10:36:28;;;;;;;0.63;0.57;;;32.60;99.90;;;;;;5030670;28;20132;-88
2023/06/18 10:38:55;;;;;;;0.75;0.60;;;32.70;99.90;;;;;;5029911;28;20049;-88
2023/06/18 10:41:21;;;;;;;1.95;0.98;;;31.80;99.90;;;;;;5028352;28;20392;-88
2023/06/18 10:43:51;;;;;;;2.30;0.80;;;31.80;99.90;;;;;;5029817;28;20404;-88
2023/06/18 10:46:17;;;;;;;1.08;0.98;;;31.40;99.90;;;;;;5030002;28;20045;-88
2023/06/18 10:49:16;;;;;;;0.88;0.77;;;31.40;99.90;;;;;;5030090;28;20380;-89
2023/06/18 10:52:01;;;;;;;1.00;0.80;;;31.90;99.90;;;;;;5028674;28;20095;-88
2023/06/18 10:54:29;;;;;;;1.05;0.77;;;31.70;99.90;;;;;;5028426;28;20568;-89
2023/06/18 10:57:01;;;;;;;0.60;0.55;;;32.20;99.90;;;;;;5029528;28;20115;-89
2023/06/18 10:59:44;;;;;;;1.33;0.60;;;33.10;99.90;;;;;;5029428;28;20049;-89
2023/06/18 11:02:14;;;;;;;0.57;0.40;;;33.40;99.90;;;;;;5028630;28;20049;-89
2023/06/18 11:04:40;;;;;;;1.17;0.73;;;33.00;99.90;;;;;;5029488;28;20144;-89
2023/06/18 11:07:27;;;;;;;3.45;1.27;;;33.10;99.90;;;;;;5028198;28;20061;-89
2023/06/18 11:09:53;;;;;;;0.90;0.38;;;32.30;99.90;;;;;;5029276;28;20411;-88
2023/06/18 11:12:27;;;;;;;1.35;0.57;;;32.10;99.90;;;;;;5028441;28;20532;-89
2023/06/18 11:15:10;;;;;;;1.23;1.00;;;32.50;99.90;;;;;;5029364;28;20049;-89
2023/06/18 11:17:38;;;;;;;2.60;1.73;;;32.90;99.90;;;;;;5029334;28;20292;-89
2023/06/18 11:20:04;;;;;;;0.70;0.68;;;32.20;99.90;;;;;;5029118;28;20055;-89
2023/06/18 11:22:32;;;;;;;2.03;0.98;;;31.90;99.90;;;;;;5029469;28;20045;-89
2023/06/18 11:24:58;;;;;;;1.15;0.63;;;31.70;99.90;;;;;;5028183;28;20064;-89
2023/06/18 11:27:25;;;;;;;1.23;0.50;;;31.90;99.90;;;;;;5029596;28;20103;-88
2023/06/18 11:29:55;;;;;;;0.82;0.75;;;32.50;99.90;;;;;;5027950;28;20045;-89
2023/06/18 11:32:23;;;;;;;1.40;1.17;;;33.10;99.90;;;;;;5027797;28;20097;-88
2023/06/18 11:34:49;;;;;;;0.60;0.38;;;33.50;99.90;;;;;;5029185;28;20054;-89
2023/06/18 11:37:15;;;;;;;1.73;1.00;;;33.90;99.90;;;;;;5027811;28;20060;-89
2023/06/18 11:39:41;;;;;;;0.70;0.55;;;34.10;99.90;;;;;;5029516;28;20061;-89
2023/06/18 11:42:19;;;;;;;19.45;1.45;;;34.60;99.90;;;;;;5028520;28;20088;-89
2023/06/18 11:45:02;;;;;;;0.68;0.65;;;34.60;99.90;;;;;;5010978;28;20061;-89
2023/06/18 11:47:34;;;;;;;0.98;0.60;;;34.90;99.90;;;;;;5027189;28;20069;-87
2023/06/18 11:50:00;;;;;;;0.63;0.63;;;35.00;99.90;;;;;;5027058;28;20087;-90
2023/06/18 11:52:27;;;;;;;1.15;0.82;;;34.70;99.90;;;;;;5029676;28;20045;-90
2023/06/18 11:54:54;;;;;;;1.27;0.70;;;34.10;99.90;;;;;;5029428;28;20599;-89
2023/06/18 11:57:22;;;;;;;0.73;0.60;;;34.10;99.90;;;;;;5028543;28;20088;-90
2023/06/18 11:59:53;;;;;;;2.28;1.02;;;33.90;99.90;;;;;;5027886;28;20088;-90
2023/06/18 12:02:27;;;;;;;0.80;0.60;;;34.70;99.90;;;;;;4997613;28;20429;-90
2023/06/18 12:05:00;;;;;;;2.08;1.15;;;35.50;99.90;;;;;;4965614;28;20066;-90
2023/06/18 12:07:27;;;;;;;0.10;0.10;;;35.80;99.90;;;;;;4949694;29;20054;-90
2023/06/18 12:09:57;;;;;;;0.20;0.20;;;35.80;99.90;;;;;;4938069;28;20086;-90
2023/06/18 12:12:27;;;;;;;2.47;1.02;;;36.10;99.90;;;;;;4984855;28;20047;-90
2023/06/18 12:15:14;;;;;;;1.15;0.75;;;36.40;99.90;;;;;;4968851;28;20051;-90
2023/06/18 12:17:57;;;;;;;0.63;0.52;;;36.00;99.90;;;;;;4969905;28;20051;-90
2023/06/18 12:20:28;;;;;;;0.88;0.70;;;35.50;99.90;;;;;;4985173;28;20055;-90
2023/06/18 12:23:01;;;;;;;0.60;0.50;;;35.90;99.90;;;;;;4970469;28;20046;-90
2023/06/18 12:25:28;;;;;;;0.35;0.35;;;35.40;93.70;;;;;;4970057;28;20457;-90
2023/06/18 12:27:56;;;;;;;0.47;0.32;;;35.60;94.50;;;;;;4969598;28;20043;-90
2023/06/18 12:30:52;;;;;;;0.63;0.47;;;35.00;69.90;;;;;;4968038;28;20089;-89
2023/06/18 12:33:21;;;;;;;0.52;0.52;;;34.80;67.30;;;;;;4957139;28;20070;-90
2023/06/18 12:35:50;;;;;;;0.32;0.32;;;35.20;84.20;;;;;;4984589;28;20156;-88
2023/06/18 12:38:16;;;;;;;2.47;1.15;;;34.30;38.60;;;;;;4970244;28;20054;-89
2023/06/18 12:40:51;;;;;;;2.60;0.88;;;34.10;36.10;;;;;;4969909;28;20062;-88
2023/06/18 12:43:19;;;;;;;0.65;0.57;;;34.30;46.70;;;;;;4968439;28;20059;-88
2023/06/18 12:45:49;;;;;;;0.63;0.55;;;34.40;38.70;;;;;;4968579;28;20042;-88
2023/06/18 12:48:17;;;;;;;5.90;1.05;;;34.80;39.00;;;;;;4984841;28;20466;-89
2023/06/18 12:50:50;;;;;;;1.73;0.75;;;35.10;43.30;;;;;;4969864;28;20521;-88
2023/06/18 12:53:23;;;;;;;0.28;0.28;;;35.40;34.50;;;;;;4968470;28;20054;-88